createdAt,value
2023-03-27T00:05:30.724Z,69.35
2023-03-27T00:11:32.506Z,69.95
2023-03-27T00:17:34.390Z,68.58
2023-03-27T00:23:36.030Z,68.55
2023-03-27T00:29:39.047Z,69.45
2023-03-27T00:35:47.884Z,69.11
2023-03-27T00:41:54.803Z,69.14
2023-03-27T00:48:02.584Z,69.51
2023-03-27T00:54:05.520Z,67.65
2023-03-27T01:00:13.085Z,67.94
2023-03-27T01:06:16.192Z,69.80
2023-03-27T01:12:24.712Z,71.66
2023-03-27T01:18:33.639Z,70.43
2023-03-27T01:24:41.566Z,70.88
2023-03-27T01:30:55.722Z,72.85
2023-03-27T01:37:05.805Z,71.91
2023-03-27T01:43:12.623Z,72.22
2023-03-27T01:49:19.577Z,72.68
2023-03-27T01:55:24.804Z,75.50
2023-03-27T02:01:37.167Z,80.22
2023-03-27T02:07:42.218Z,77.34
2023-03-27T02:13:53.915Z,79.28
2023-03-27T02:20:04.006Z,79.81
2023-03-27T02:26:05.956Z,79.67
2023-03-27T02:32:15.306Z,85.22
2023-03-27T02:38:28.525Z,82.26
2023-03-27T02:44:33.823Z,88.01
2023-03-27T02:50:50.462Z,90.63
2023-03-27T02:56:55.326Z,90.48
2023-03-27T03:03:16.937Z,88.53
2023-03-27T03:09:24.826Z,88.45
2023-03-27T03:15:26.758Z,87.32
2023-03-27T03:21:28.248Z,81.41
2023-03-27T03:27:30.494Z,77.35
2023-03-27T03:33:37.542Z,75.52
2023-03-27T03:39:39.172Z,75.05
2023-03-27T03:45:41.432Z,75.44
2023-03-27T03:51:42.982Z,77.27
2023-03-27T03:57:46.712Z,76.20
2023-03-27T04:03:53.903Z,74.83
2023-03-27T04:09:58.668Z,74.55
2023-03-27T04:16:03.102Z,74.81
2023-03-27T04:22:07.670Z,75.21
2023-03-27T04:28:17.697Z,75.14
2023-03-27T04:34:23.575Z,75.30
2023-03-27T04:40:48.652Z,76.05
2023-03-27T04:46:51.430Z,78.22
2023-03-27T04:52:59.255Z,80.90
2023-03-27T04:59:03.998Z,81.89
2023-03-27T05:05:05.918Z,80.21
2023-03-27T05:11:12.098Z,78.45
2023-03-27T05:17:19.541Z,85.69
2023-03-27T05:23:21.541Z,86.78
2023-03-27T05:29:23.672Z,86.61
2023-03-27T05:35:32.187Z,83.20
2023-03-27T05:41:36.404Z,79.72
2023-03-27T05:47:53.498Z,76.90
2023-03-27T05:53:55.550Z,77.64
2023-03-27T06:00:15.606Z,81.28
2023-03-27T06:06:22.166Z,85.32
2023-03-27T06:12:29.447Z,84.14
2023-03-27T06:18:39.952Z,82.11
2023-03-27T06:24:42.029Z,82.98
2023-03-27T06:30:45.466Z,86.44
2023-03-27T06:37:06.368Z,84.39
2023-03-27T06:43:18.230Z,84.50
2023-03-27T06:49:32.223Z,92.45
2023-03-27T06:55:39.185Z,98.35
2023-03-27T07:01:43.105Z,91.72
2023-03-27T07:08:21.184Z,89.93
2023-03-27T07:14:25.834Z,91.38
2023-03-27T07:20:29.280Z,90.42
2023-03-27T07:26:33.761Z,89.07
2023-03-27T07:32:47.624Z,84.97
2023-03-27T07:38:49.380Z,84.01
2023-03-27T07:44:57.498Z,86.32
2023-03-27T07:51:10.798Z,89.12
2023-03-27T07:57:15.736Z,93.90
2023-03-27T08:03:27.643Z,91.83
2023-03-27T08:09:29.929Z,95.13
2023-03-27T08:15:33.331Z,94.09
2023-03-27T08:21:36.248Z,91.45
2023-03-27T08:27:37.863Z,93.28
2023-03-27T08:33:41.228Z,97.38
2023-03-27T08:39:46.656Z,100.00
2023-03-27T08:46:01.552Z,100.00
2023-03-27T08:52:09.857Z,100.00
2023-03-27T08:58:20.425Z,100.00
2023-03-27T09:05:00.155Z,100.00
2023-03-27T09:11:05.773Z,100.00
2023-03-27T09:17:46.416Z,100.00
2023-03-27T09:23:53.469Z,98.24
2023-03-27T09:30:33.914Z,99.80
2023-03-27T09:36:43.837Z,100.00
2023-03-27T09:42:47.972Z,100.00
2023-03-27T09:49:00.841Z,93.59
2023-03-27T09:55:04.181Z,44.79
2023-03-27T10:01:27.042Z,49.07
2023-03-27T10:07:30.134Z,48.68
2023-03-27T10:13:46.041Z,49.44
2023-03-27T10:20:04.797Z,50.07
2023-03-27T10:26:13.164Z,52.22
2023-03-27T10:32:42.454Z,55.37
2023-03-27T10:39:12.239Z,55.59
2023-03-27T10:45:30.725Z,54.20
2023-03-27T10:51:46.429Z,55.39
2023-03-27T10:57:57.432Z,55.27
2023-03-27T11:04:06.591Z,53.13
2023-03-27T11:10:19.587Z,55.71
2023-03-27T11:16:38.587Z,57.84
2023-03-27T11:22:46.571Z,57.34
2023-03-27T11:29:16.244Z,54.78
2023-03-27T11:35:24.361Z,56.26
2023-03-27T11:41:38.864Z,54.98
2023-03-27T11:47:49.561Z,55.09
2023-03-27T11:54:04.721Z,56.71
2023-03-27T12:00:31.285Z,52.77
2023-03-27T12:06:35.488Z,53.97
2023-03-27T12:12:49.456Z,53.86
2023-03-27T12:19:05.856Z,51.15
2023-03-27T12:25:16.283Z,47.62
2023-03-27T12:31:49.073Z,48.36
2023-03-27T12:37:58.482Z,52.10
2023-03-27T12:44:03.003Z,51.93
2023-03-27T12:50:33.421Z,50.88
2023-03-27T12:56:36.544Z,50.47
2023-03-27T13:03:06.261Z,50.31
2023-03-27T13:09:34.737Z,48.29
2023-03-27T13:15:46.384Z,47.66
2023-03-27T13:22:10.458Z,47.93
2023-03-27T13:28:18.149Z,49.67
2023-03-27T13:34:38.624Z,46.33
2023-03-27T13:40:45.313Z,46.69
2023-03-27T13:47:24.681Z,46.25
2023-03-27T13:53:53.678Z,49.33
2023-03-27T14:00:32.509Z,48.01
2023-03-27T14:07:04.639Z,47.41
2023-03-27T14:13:26.114Z,47.34
2023-03-27T14:19:58.957Z,48.24
2023-03-27T14:26:19.442Z,48.35
2023-03-27T14:32:22.015Z,48.59
2023-03-27T14:38:35.278Z,48.42
2023-03-27T14:44:37.255Z,47.89
2023-03-27T14:50:50.988Z,45.95
2023-03-27T14:56:59.473Z,44.45
2023-03-27T15:03:15.660Z,46.83
2023-03-27T15:09:18.616Z,46.88
2023-03-27T15:15:42.293Z,44.66
2023-03-27T15:21:50.225Z,42.83
2023-03-27T15:27:55.458Z,43.43
2023-03-27T15:34:15.316Z,43.30
2023-03-27T15:40:32.337Z,44.32
2023-03-27T15:46:50.681Z,45.04
2023-03-27T15:52:54.325Z,43.40
2023-03-27T15:59:03.084Z,41.29
2023-03-27T16:05:05.286Z,42.41
2023-03-27T16:11:06.767Z,40.43
2023-03-27T16:17:19.883Z,41.28
2023-03-27T16:23:21.502Z,42.72
2023-03-27T16:29:23.269Z,41.44
2023-03-27T16:35:26.118Z,42.41
2023-03-27T16:41:28.001Z,42.48
2023-03-27T16:47:30.723Z,44.02
2023-03-27T16:53:32.454Z,43.50
2023-03-27T16:59:36.767Z,43.14
2023-03-27T17:05:38.491Z,43.08
2023-03-27T17:11:40.516Z,43.82
2023-03-27T17:17:42.447Z,42.90
2023-03-27T17:23:47.534Z,40.75
2023-03-27T17:29:49.053Z,43.52
2023-03-27T17:35:50.740Z,42.26
2023-03-27T17:41:53.053Z,41.83
2023-03-27T17:47:55.137Z,41.83
2023-03-27T17:53:57.096Z,39.47
2023-03-27T17:59:58.515Z,41.21
2023-03-27T18:06:02.675Z,40.90
2023-03-27T18:12:04.609Z,42.18
2023-03-27T18:18:07.420Z,41.31
2023-03-27T18:24:09.441Z,41.89
2023-03-27T18:30:14.195Z,40.84
2023-03-27T18:36:16.206Z,41.59
2023-03-27T18:42:18.210Z,42.17
2023-03-27T18:48:19.968Z,42.28
2023-03-27T18:54:22.330Z,43.10
2023-03-27T19:00:24.259Z,43.67
2023-03-27T19:06:26.027Z,43.62
2023-03-27T19:12:27.524Z,43.26
2023-03-27T19:18:58.256Z,44.13
2023-03-27T19:25:26.942Z,43.52
2023-03-27T19:31:29.089Z,43.34
2023-03-27T19:37:33.723Z,40.97
2023-03-27T19:43:36.156Z,41.76
2023-03-27T19:49:37.789Z,43.93
2023-03-27T19:56:12.011Z,43.71
2023-03-27T20:02:14.402Z,43.66
2023-03-27T20:08:20.034Z,44.39
2023-03-27T20:14:22.298Z,45.46
2023-03-27T20:20:24.263Z,44.37
2023-03-27T20:26:28.568Z,42.71
2023-03-27T20:32:56.791Z,43.77
2023-03-27T20:39:03.987Z,44.80
2023-03-27T20:45:06.683Z,45.25
2023-03-27T20:51:16.929Z,44.99
2023-03-27T20:57:26.963Z,45.78
2023-03-27T21:03:31.443Z,44.96
2023-03-27T21:09:37.859Z,45.80
2023-03-27T21:15:45.156Z,46.30
2023-03-27T21:21:52.671Z,46.56
2023-03-27T21:28:15.168Z,46.50
2023-03-27T21:35:15.511Z,45.73
2023-03-27T21:41:23.765Z,46.50
2023-03-27T21:47:46.570Z,46.86
2023-03-27T21:54:01.335Z,47.06
2023-03-27T22:00:09.375Z,46.69
2023-03-27T22:06:20.414Z,46.36
2023-03-27T22:12:31.253Z,46.18
2023-03-27T22:18:38.847Z,46.20
2023-03-27T22:24:40.668Z,45.77
2023-03-27T22:30:50.662Z,46.19
2023-03-27T22:36:57.376Z,47.38
2023-03-27T22:43:03.508Z,46.72
2023-03-27T22:49:05.191Z,47.68
2023-03-27T22:55:11.163Z,47.23
2023-03-27T23:01:13.293Z,47.60
2023-03-27T23:07:17.758Z,47.86
2023-03-27T23:13:23.622Z,48.23
2023-03-27T23:19:25.200Z,48.38
2023-03-27T23:25:27.210Z,48.01
2023-03-27T23:31:29.818Z,48.28
2023-03-27T23:37:37.584Z,48.68
2023-03-27T23:43:46.111Z,48.84
2023-03-27T23:49:48.437Z,48.66
2023-03-27T23:55:50.924Z,49.03
